Houston, TX (77082)

6:32 PM CST on December 18, 2014 (GMT -0600)
Ashford Hollow (West Houston) | Change Station
CLOSE
Current Station
Personal Weather Station
Location: Houston, TX
Elevation: 70 ft
Nearby Weather Stations

Elev 70 ft 29.74 °N, 95.60 °W | Updated 8 seconds ago

Overcast
Overcast
63.1 °F
Feels Like 63.1 °F
N
3.0
Wind Variable Wind from NNE
Gusts 3.0 mph

Today
High -- | Low -- °F
--% Chance of Precip.
Yesterday
High -- | Low -- °F
Precip. -- in
7:12 AM 5:26 PM
Waning Crescent, 11% visible
Pressure 30.03 in
Visibility 10.0 miles
Clouds Mostly Cloudy 2200 ft
Overcast 3300 ft
Dew Point 59 °F
Humidity 87%
Rainfall 0.14 in
Snow Depth Not available.
UV 0 out of 12
Pollen 4.40 out of 12
Air Quality Not available.
Flu Activity Not available.
METAR KSGR 182353Z 04007KT 10SM BKN022 OVC033 21/17 A3003 RMK AO2 SLP169 T02060167 10222 20206 53003

More Conditions Fewer Conditions

Pressure 30.03 in
Visibility 10.0 miles
Clouds Mostly Cloudy 2200 ft
Overcast 3300 ft
Dew Point 59 °F
Humidity 87%
Rainfall 0.14 in
Snow Depth Not available.
UV 0 out of 12
Pollen 4.40 out of 12
Air Quality Not available.
Flu Activity Not available.
METAR KSGR 182353Z 04007KT 10SM BKN022 OVC033 21/17 A3003 RMK AO2 SLP169 T02060167 10222 20206 53003

More Conditions Fewer Conditions

10-Day Weather Forecast

Almanac

Astronomy

Dec. 18, 2014 Rise Set
Actual Time
Civil Twilight
Nautical Twilight
Astronomical Twilight
Moon
Length of Visible Light
Length of Day
Tomorrow will be .
, % of the Moon is Illuminated

Today's Extremes

State Highs State Lows

Community

WunderPhotos

Upload Photos

1,779,016 photos uploaded!

WunderBlogs® & News

Nearby

Air Quality

  Air Quality AQ Index Pollutant
Not available.

Snow Depth

Station Depth Elevation

Earthquake Activity

City Distance Mag. Time & Date
Minimum magnitude displayed is 2.5.

Coastal Water Temperatures

Place Temperature

Nearby Weather Stations